createdAt,value
2022-09-09T00:02:14.811Z,100219.63
2022-09-09T00:04:42.469Z,100249.53
2022-09-09T00:07:41.956Z,100246.94
2022-09-09T00:10:39.770Z,100226.34
2022-09-09T00:13:19.271Z,100217.16
2022-09-09T00:16:05.044Z,100241.94
2022-09-09T00:19:04.920Z,100242.06
2022-09-09T00:21:37.028Z,100224.91
2022-09-09T00:24:20.645Z,100203.59
2022-09-09T00:26:52.043Z,100224.16
2022-09-09T00:29:26.637Z,100234.63
2022-09-09T00:32:00.803Z,100206.59
2022-09-09T00:34:28.879Z,100218.47
2022-09-09T00:36:57.152Z,100202.38
2022-09-09T00:39:38.396Z,100213.75
2022-09-09T00:42:13.514Z,100236.69
2022-09-09T00:44:52.568Z,100199.19
2022-09-09T00:47:29.546Z,100190.66
2022-09-09T00:50:01.582Z,100195.72
2022-09-09T00:52:36.738Z,100224.69
2022-09-09T00:55:06.938Z,100226.69
2022-09-09T00:57:36.083Z,100222.28
2022-09-09T01:00:25.806Z,100222.44
2022-09-09T01:02:52.278Z,100219.00
2022-09-09T01:05:31.202Z,100183.31
2022-09-09T01:07:58.857Z,100221.03
2022-09-09T01:10:42.127Z,100219.41
2022-09-09T01:13:17.882Z,100218.59
2022-09-09T01:15:46.315Z,100222.13
2022-09-09T01:18:16.671Z,100189.88
2022-09-09T01:21:03.082Z,100216.28
2022-09-09T01:23:32.296Z,100228.41
2022-09-09T01:26:44.748Z,100209.44
2022-09-09T01:29:22.333Z,100212.19
2022-09-09T01:32:04.071Z,100188.31
2022-09-09T01:34:41.441Z,100231.13
2022-09-09T01:37:11.512Z,100224.06
2022-09-09T01:39:41.164Z,100228.47
2022-09-09T01:42:12.687Z,100229.25
2022-09-09T01:44:40.384Z,100225.75
2022-09-09T01:47:07.334Z,100217.94
2022-09-09T01:49:36.329Z,100224.69
2022-09-09T01:52:10.364Z,100224.66
2022-09-09T01:54:38.916Z,100217.66
2022-09-09T01:57:28.417Z,100224.56
2022-09-09T02:00:09.152Z,100221.91
2022-09-09T02:03:05.709Z,100218.38
2022-09-09T02:06:01.209Z,100218.31
2022-09-09T02:08:49.817Z,100213.03
2022-09-09T02:11:26.175Z,100175.41
2022-09-09T02:14:03.755Z,100178.72
2022-09-09T02:16:33.464Z,100201.56
2022-09-09T02:19:30.662Z,100204.34
2022-09-09T02:22:03.953Z,100191.09
2022-09-09T02:24:35.091Z,100197.16
2022-09-09T02:27:15.177Z,100191.81
2022-09-09T02:29:44.073Z,100181.78
2022-09-09T02:32:20.450Z,100164.63
2022-09-09T02:34:51.791Z,100199.63
2022-09-09T02:37:19.850Z,100196.09
2022-09-09T02:39:49.840Z,100192.56
2022-09-09T02:42:19.931Z,100195.25
2022-09-09T02:44:47.034Z,100196.00
2022-09-09T02:47:32.448Z,100186.44
2022-09-09T02:50:14.326Z,100156.63
2022-09-09T02:53:06.703Z,100187.19
2022-09-09T02:55:42.616Z,100179.59
2022-09-09T02:58:15.294Z,100182.09
2022-09-09T03:00:41.894Z,100187.16
2022-09-09T03:03:09.960Z,100194.91
2022-09-09T03:05:38.251Z,100193.25
2022-09-09T03:08:06.428Z,100201.78
2022-09-09T03:10:33.568Z,100201.72
2022-09-09T03:13:00.112Z,100202.56
2022-09-09T03:15:29.520Z,100208.59
2022-09-09T03:17:56.682Z,100209.41
2022-09-09T03:20:28.701Z,100205.00
2022-09-09T03:22:56.204Z,100211.06
2022-09-09T03:25:23.479Z,100210.06
2022-09-09T03:27:51.774Z,100209.16
2022-09-09T03:30:18.565Z,100211.72
2022-09-09T03:32:48.914Z,100212.56
2022-09-09T03:35:15.916Z,100214.34
2022-09-09T03:37:42.735Z,100215.19
2022-09-09T03:40:11.710Z,100210.06
2022-09-09T03:42:39.392Z,100221.22
2022-09-09T03:45:08.462Z,100221.22
2022-09-09T03:47:34.983Z,100225.59
2022-09-09T03:50:06.431Z,100215.31
2022-09-09T03:52:36.011Z,100223.91
2022-09-09T03:55:03.175Z,100220.34
2022-09-09T03:57:29.685Z,100219.59
2022-09-09T03:59:56.280Z,100219.63
2022-09-09T04:02:22.923Z,100219.75
2022-09-09T04:04:49.472Z,100220.78
2022-09-09T04:07:16.195Z,100220.00
2022-09-09T04:09:43.723Z,100230.59
2022-09-09T04:12:10.296Z,100221.88
2022-09-09T04:14:36.936Z,100221.25
2022-09-09T04:17:05.701Z,100223.81
2022-09-09T04:19:32.158Z,100223.09
2022-09-09T04:21:58.764Z,100222.28
2022-09-09T04:24:25.241Z,100214.56
2022-09-09T04:26:52.314Z,100227.66
2022-09-09T04:29:18.763Z,100221.72
2022-09-09T04:31:45.342Z,100224.34
2022-09-09T04:34:12.976Z,100224.41
2022-09-09T04:36:40.091Z,100233.22
2022-09-09T04:39:07.025Z,100221.94
2022-09-09T04:41:33.564Z,100224.84
2022-09-09T04:44:00.084Z,100228.22
2022-09-09T04:46:26.835Z,100219.75
2022-09-09T04:48:53.355Z,100236.97
2022-09-09T04:51:20.165Z,100238.75
2022-09-09T04:53:48.740Z,100235.31
2022-09-09T04:56:17.735Z,100242.34
2022-09-09T04:58:51.489Z,100244.94
2022-09-09T05:01:22.013Z,100244.97
2022-09-09T05:03:50.391Z,100240.78
2022-09-09T05:06:22.196Z,100232.19
2022-09-09T05:08:51.952Z,100254.63
2022-09-09T05:11:25.221Z,100254.63
2022-09-09T05:13:54.973Z,100259.81
2022-09-09T05:16:22.288Z,100255.66
2022-09-09T05:18:50.003Z,100261.75
2022-09-09T05:21:18.411Z,100260.94
2022-09-09T05:23:46.093Z,100261.06
2022-09-09T05:26:17.476Z,100236.28
2022-09-09T05:28:46.569Z,100262.88
2022-09-09T05:31:14.928Z,100268.13
2022-09-09T05:33:45.363Z,100227.97
2022-09-09T05:36:14.827Z,100252.81
2022-09-09T05:38:42.287Z,100270.06
2022-09-09T05:41:10.018Z,100263.91
2022-09-09T05:43:36.537Z,100269.19
2022-09-09T05:46:08.443Z,100235.13
2022-09-09T05:48:37.948Z,100236.03
2022-09-09T05:51:06.881Z,100241.16
2022-09-09T05:53:34.079Z,100271.19
2022-09-09T05:56:06.469Z,100274.03
2022-09-09T05:58:35.663Z,100284.22
2022-09-09T06:01:10.243Z,100252.84
2022-09-09T06:03:40.204Z,100282.16
2022-09-09T06:06:09.257Z,100283.88
2022-09-09T06:08:38.467Z,100258.50
2022-09-09T06:11:10.231Z,100299.63
2022-09-09T06:13:37.966Z,100293.50
2022-09-09T06:16:04.730Z,100295.25
2022-09-09T06:18:31.372Z,100299.59
2022-09-09T06:21:00.323Z,100302.97
2022-09-09T06:23:28.143Z,100302.03
2022-09-09T06:26:14.674Z,100314.22
2022-09-09T06:28:41.664Z,100318.50
2022-09-09T06:31:10.939Z,100274.78
2022-09-09T06:33:40.180Z,100309.13
2022-09-09T06:36:10.637Z,100313.44
2022-09-09T06:38:37.236Z,100311.81
2022-09-09T06:41:04.417Z,100318.03
2022-09-09T06:43:32.437Z,100326.00
2022-09-09T06:46:04.071Z,100319.25
2022-09-09T06:48:32.775Z,100326.22
2022-09-09T06:51:06.512Z,100325.50
2022-09-09T06:53:34.958Z,100329.09
2022-09-09T06:56:03.837Z,100317.38
2022-09-09T06:58:31.140Z,100321.81
2022-09-09T07:01:07.657Z,100346.22
2022-09-09T07:03:35.387Z,100339.38
2022-09-09T07:06:02.543Z,100336.94
2022-09-09T07:08:29.163Z,100339.69
2022-09-09T07:11:02.373Z,100336.25
2022-09-09T07:13:29.139Z,100345.91
2022-09-09T07:15:56.711Z,100345.94
2022-09-09T07:18:23.204Z,100347.75
2022-09-09T07:20:56.380Z,100358.19
2022-09-09T07:23:24.193Z,100363.34
2022-09-09T07:25:51.295Z,100365.09
2022-09-09T07:28:17.951Z,100366.81
2022-09-09T07:30:44.644Z,100369.34
2022-09-09T07:33:11.131Z,100371.97
2022-09-09T07:35:37.601Z,100373.69
2022-09-09T07:38:04.746Z,100371.06
2022-09-09T07:40:31.224Z,100377.91
2022-09-09T07:42:58.121Z,100387.34
2022-09-09T07:45:24.606Z,100391.56
2022-09-09T07:47:51.142Z,100391.50
2022-09-09T07:50:18.184Z,100390.53
2022-09-09T07:52:44.722Z,100402.69
2022-09-09T07:55:11.301Z,100401.75
2022-09-09T07:57:38.058Z,100398.31
2022-09-09T08:00:05.663Z,100414.03
2022-09-09T08:02:38.800Z,100407.94
2022-09-09T08:05:05.647Z,100393.44
2022-09-09T08:07:32.300Z,100425.25
2022-09-09T08:09:59.002Z,100413.97
2022-09-09T08:12:29.811Z,100420.88
2022-09-09T08:14:57.048Z,100423.44
2022-09-09T08:17:27.564Z,100431.22
2022-09-09T08:19:54.202Z,100441.59
2022-09-09T08:22:24.483Z,100443.31
2022-09-09T08:24:51.155Z,100447.63
2022-09-09T08:27:18.484Z,100453.72
2022-09-09T08:29:44.933Z,100445.84
2022-09-09T08:32:11.508Z,100457.09
2022-09-09T08:34:41.196Z,100457.88
2022-09-09T08:37:11.555Z,100456.81
2022-09-09T08:39:40.519Z,100460.13
2022-09-09T08:42:24.896Z,100439.41
2022-09-09T08:45:23.862Z,100466.56
2022-09-09T08:48:26.453Z,100461.09
2022-09-09T08:50:53.248Z,100459.16
2022-09-09T08:53:30.800Z,100427.97
2022-09-09T08:56:04.553Z,100431.38
2022-09-09T08:59:02.174Z,100470.50
2022-09-09T09:02:27.189Z,100480.00
2022-09-09T09:05:06.270Z,100461.88
2022-09-09T09:08:15.787Z,100482.28
2022-09-09T09:10:49.364Z,100495.13
2022-09-09T09:13:27.809Z,100497.63
2022-09-09T09:16:02.673Z,100491.16
2022-09-09T09:18:29.500Z,100496.13
2022-09-09T09:21:05.176Z,100497.44
2022-09-09T09:23:46.250Z,100500.66
2022-09-09T09:26:12.883Z,100504.91
2022-09-09T09:28:41.019Z,100506.25
2022-09-09T09:31:13.873Z,100508.56
2022-09-09T09:33:52.407Z,100524.94
2022-09-09T09:36:24.449Z,100523.00
2022-09-09T09:41:47.342Z,100524.47
2022-09-09T09:44:28.766Z,100531.31
2022-09-09T09:47:19.483Z,100514.13
2022-09-09T09:49:57.459Z,100537.06
2022-09-09T09:52:27.768Z,100502.59
2022-09-09T09:54:56.517Z,100542.69
2022-09-09T09:57:31.950Z,100536.41
2022-09-09T10:00:23.597Z,100544.03
2022-09-09T10:03:22.175Z,100513.06
2022-09-09T10:05:49.792Z,100539.25
2022-09-09T10:08:18.322Z,100546.84
2022-09-09T10:10:53.903Z,100538.47
2022-09-09T10:13:26.425Z,100537.72
2022-09-09T10:16:11.290Z,100538.69
2022-09-09T10:18:53.903Z,100515.19
2022-09-09T10:21:27.987Z,100510.31
2022-09-09T10:24:09.856Z,100542.25
2022-09-09T10:26:40.857Z,100543.59
2022-09-09T10:29:22.658Z,100540.69
2022-09-09T10:32:13.459Z,100522.28
2022-09-09T10:34:48.987Z,100536.47
2022-09-09T10:37:37.680Z,100539.94
2022-09-09T10:40:39.187Z,100547.03
2022-09-09T10:43:31.686Z,100546.00
2022-09-09T10:46:19.901Z,100551.97
2022-09-09T10:49:08.869Z,100528.78
2022-09-09T10:52:03.901Z,100554.34
2022-09-09T10:54:57.183Z,100557.41
2022-09-09T10:57:37.225Z,100552.44
2022-09-09T11:00:16.407Z,100530.75
2022-09-09T11:02:42.882Z,100557.66
2022-09-09T11:05:22.823Z,100563.53
2022-09-09T11:07:54.252Z,100554.75
2022-09-09T11:10:59.083Z,100562.84
2022-09-09T11:13:49.417Z,100533.41
2022-09-09T11:16:51.339Z,100566.13
2022-09-09T11:19:43.191Z,100563.00
2022-09-09T11:22:21.839Z,100570.94
2022-09-09T11:24:59.341Z,100547.13
2022-09-09T11:27:32.724Z,100570.16
2022-09-09T11:33:18.616Z,100539.94
2022-09-09T11:36:19.155Z,100577.31
2022-09-09T11:38:47.774Z,100565.72
2022-09-09T11:41:20.980Z,100550.47
2022-09-09T11:43:53.089Z,100572.78
2022-09-09T11:46:32.487Z,100585.66
2022-09-09T11:49:02.063Z,100548.69
2022-09-09T11:51:30.912Z,100585.66
2022-09-09T11:54:28.951Z,100587.69
2022-09-09T11:56:55.712Z,100589.94
2022-09-09T11:59:33.407Z,100574.88
2022-09-09T12:02:19.607Z,100577.28
2022-09-09T12:04:58.453Z,100564.88
2022-09-09T12:07:34.079Z,100578.00
2022-09-09T12:10:21.482Z,100548.09
2022-09-09T12:12:48.046Z,100558.50
2022-09-09T12:15:24.644Z,100562.63
2022-09-09T12:17:53.791Z,100537.88
2022-09-09T12:20:20.286Z,100564.75
2022-09-09T12:23:11.619Z,100569.84
2022-09-09T12:25:56.815Z,100569.41
2022-09-09T12:28:38.178Z,100555.19
2022-09-09T12:31:26.066Z,100578.38
2022-09-09T12:33:52.519Z,100569.53
2022-09-09T12:36:33.451Z,100570.16
2022-09-09T12:39:42.902Z,100564.78
2022-09-09T12:42:20.453Z,100540.19
2022-09-09T12:44:59.830Z,100563.28
2022-09-09T12:47:49.396Z,100572.50
2022-09-09T12:50:19.777Z,100548.53
2022-09-09T12:52:47.906Z,100579.25
2022-09-09T12:55:31.185Z,100577.50
2022-09-09T12:57:59.408Z,100543.88
2022-09-09T13:00:26.191Z,100578.03
2022-09-09T13:02:58.871Z,100577.06
2022-09-09T13:05:26.757Z,100581.25
2022-09-09T13:08:01.343Z,100575.81
2022-09-09T13:10:37.016Z,100575.47
2022-09-09T13:13:20.557Z,100557.25
2022-09-09T13:15:58.774Z,100572.94
2022-09-09T13:18:31.747Z,100582.84
2022-09-09T13:20:58.741Z,100580.59
2022-09-09T13:23:30.284Z,100548.72
2022-09-09T13:26:20.873Z,100574.91
2022-09-09T13:28:47.362Z,100578.78
2022-09-09T13:31:43.320Z,100582.41
2022-09-09T13:34:31.590Z,100596.28
2022-09-09T13:37:02.197Z,100582.69
2022-09-09T13:39:29.014Z,100585.38
2022-09-09T13:41:55.845Z,100584.50
2022-09-09T13:44:26.281Z,100580.75
2022-09-09T13:47:26.520Z,100551.88
2022-09-09T13:49:53.047Z,100575.34
2022-09-09T13:52:20.296Z,100578.59
2022-09-09T13:54:51.227Z,100577.63
2022-09-09T13:57:25.004Z,100576.69
2022-09-09T14:00:04.548Z,100587.44
2022-09-09T14:02:32.317Z,100586.03
2022-09-09T14:04:58.914Z,100593.28
2022-09-09T14:07:25.454Z,100598.84
2022-09-09T14:09:51.918Z,100602.53
2022-09-09T14:12:18.573Z,100601.19
2022-09-09T14:14:45.150Z,100591.41
2022-09-09T14:17:11.799Z,100607.09
2022-09-09T14:19:38.252Z,100608.91
2022-09-09T14:22:04.868Z,100599.06
2022-09-09T14:24:31.373Z,100605.63
2022-09-09T14:26:57.944Z,100610.00
2022-09-09T14:29:24.411Z,100609.47
2022-09-09T14:31:50.856Z,100623.09
2022-09-09T14:34:17.533Z,100615.06
2022-09-09T14:36:43.976Z,100619.50
2022-09-09T14:39:10.421Z,100604.38
2022-09-09T14:41:36.891Z,100607.94
2022-09-09T14:44:03.505Z,100600.72
2022-09-09T14:46:30.028Z,100609.13
2022-09-09T14:48:56.481Z,100607.28
2022-09-09T14:51:25.316Z,100594.53
2022-09-09T14:53:53.778Z,100616.56
2022-09-09T14:56:22.648Z,100566.97
2022-09-09T14:58:49.443Z,100604.81
2022-09-09T15:01:18.273Z,100618.38
2022-09-09T15:04:00.565Z,100582.13
2022-09-09T15:06:29.236Z,100618.78
2022-09-09T15:08:56.128Z,100601.41
2022-09-09T15:11:22.600Z,100623.66
2022-09-09T15:13:52.542Z,100600.41
2022-09-09T15:16:20.663Z,100644.31
2022-09-09T15:18:47.662Z,100627.69
2022-09-09T15:21:17.090Z,100657.09
2022-09-09T15:23:44.007Z,100650.75
2022-09-09T15:26:10.792Z,100650.53
2022-09-09T15:28:38.715Z,100655.22
2022-09-09T15:31:20.452Z,100649.81
2022-09-09T15:33:51.596Z,100663.88
2022-09-09T15:36:22.441Z,100658.13
2022-09-09T15:38:49.897Z,100660.97
2022-09-09T15:41:17.801Z,100654.22
2022-09-09T15:43:49.350Z,100638.22
2022-09-09T15:46:18.812Z,100664.78
2022-09-09T15:48:47.351Z,100668.50
2022-09-09T15:51:37.886Z,100673.25
2022-09-09T15:54:02.151Z,100670.75
2022-09-09T15:56:30.023Z,100684.88
2022-09-09T15:58:57.493Z,100659.72
2022-09-09T16:01:24.635Z,100668.19
2022-09-09T16:03:51.250Z,100670.13
2022-09-09T16:06:19.712Z,100665.88
2022-09-09T16:08:47.003Z,100664.97
2022-09-09T16:11:15.958Z,100602.28
2022-09-09T16:13:46.808Z,100628.81
2022-09-09T16:16:18.823Z,100662.78
2022-09-09T16:18:47.857Z,100670.75
2022-09-09T16:21:29.519Z,100679.09
2022-09-09T16:23:57.458Z,100683.84
2022-09-09T16:26:23.981Z,100691.25
2022-09-09T16:28:50.796Z,100691.78
2022-09-09T16:31:20.269Z,100687.97
2022-09-09T16:33:47.282Z,100692.97
2022-09-09T16:36:16.562Z,100702.06
2022-09-09T16:38:43.894Z,100695.25
2022-09-09T16:41:11.894Z,100702.38
2022-09-09T16:43:39.179Z,100707.25
2022-09-09T16:46:17.697Z,100679.41
2022-09-09T16:48:45.831Z,100712.50
2022-09-09T16:51:16.254Z,100695.22
2022-09-09T16:53:43.541Z,100711.31
2022-09-09T16:56:13.195Z,100712.00
2022-09-09T16:58:39.939Z,100711.00
2022-09-09T17:01:06.852Z,100728.09
2022-09-09T17:03:33.402Z,100718.72
2022-09-09T17:06:00.319Z,100720.69
2022-09-09T17:08:26.809Z,100725.22
2022-09-09T17:10:53.286Z,100730.25
2022-09-09T17:13:19.728Z,100729.44
2022-09-09T17:15:46.368Z,100735.53
2022-09-09T17:18:13.883Z,100740.88
2022-09-09T17:20:46.717Z,100705.41
2022-09-09T17:23:14.010Z,100741.19
2022-09-09T17:25:40.880Z,100748.00
2022-09-09T17:28:07.373Z,100735.72
2022-09-09T17:30:37.590Z,100739.13
2022-09-09T17:33:04.982Z,100738.00
2022-09-09T17:35:32.320Z,100743.88
2022-09-09T17:37:58.809Z,100741.94
2022-09-09T17:40:25.403Z,100751.22
2022-09-09T17:42:51.895Z,100744.00
2022-09-09T17:45:18.346Z,100750.47
2022-09-09T17:47:44.777Z,100754.50
2022-09-09T17:50:11.415Z,100741.41
2022-09-09T17:52:38.029Z,100758.25
2022-09-09T17:55:05.720Z,100751.72
2022-09-09T17:57:32.234Z,100759.78
2022-09-09T17:59:58.669Z,100757.50
2022-09-09T18:02:25.190Z,100766.31
2022-09-09T18:04:51.632Z,100769.94
2022-09-09T18:07:18.087Z,100765.13
2022-09-09T18:09:44.630Z,100778.22
2022-09-09T18:12:11.097Z,100785.31
2022-09-09T18:14:37.538Z,100787.19
2022-09-09T18:17:04.308Z,100794.34
2022-09-09T18:19:32.452Z,100791.97
2022-09-09T18:22:02.344Z,100798.06
2022-09-09T18:24:30.564Z,100800.91
2022-09-09T18:26:57.070Z,100811.53
2022-09-09T18:29:24.317Z,100808.25
2022-09-09T18:31:52.180Z,100798.97
2022-09-09T18:34:20.298Z,100813.22
2022-09-09T18:36:51.369Z,100799.69
2022-09-09T18:39:19.048Z,100813.66
2022-09-09T18:41:50.625Z,100786.56
2022-09-09T18:44:20.810Z,100825.34
2022-09-09T18:46:47.911Z,100830.59
2022-09-09T18:49:15.077Z,100840.44
2022-09-09T18:51:43.121Z,100837.19
2022-09-09T18:54:15.963Z,100846.84
2022-09-09T18:56:42.731Z,100840.94
2022-09-09T18:59:12.728Z,100842.03
2022-09-09T19:01:39.534Z,100855.19
2022-09-09T19:04:07.933Z,100827.94
2022-09-09T19:06:38.552Z,100821.25
2022-09-09T19:09:05.627Z,100863.53
2022-09-09T19:11:32.810Z,100873.25
2022-09-09T19:14:01.951Z,100867.28
2022-09-09T19:16:32.975Z,100864.91
2022-09-09T19:19:05.370Z,100874.44
2022-09-09T19:21:34.106Z,100876.31
2022-09-09T19:24:10.518Z,100852.53
2022-09-09T19:26:41.160Z,100849.22
2022-09-09T19:29:08.908Z,100886.19
2022-09-09T19:31:36.030Z,100868.41
2022-09-09T19:34:02.622Z,100887.34
2022-09-09T19:36:29.209Z,100886.63
2022-09-09T19:38:56.044Z,100899.78
2022-09-09T19:41:25.614Z,100896.47
2022-09-09T19:43:55.559Z,100893.00
2022-09-09T19:46:22.057Z,100899.22
2022-09-09T19:48:48.617Z,100909.88
2022-09-09T19:51:25.843Z,100871.22
2022-09-09T19:53:54.780Z,100912.63
2022-09-09T19:56:21.878Z,100909.19
2022-09-09T19:58:49.196Z,100921.53
2022-09-09T20:01:18.539Z,100915.66
2022-09-09T20:03:47.508Z,100926.84
2022-09-09T20:06:18.020Z,100919.31
2022-09-09T20:08:46.833Z,100898.03
2022-09-09T20:11:14.830Z,100939.47
2022-09-09T20:13:41.858Z,100938.63
2022-09-09T20:16:14.749Z,100950.09
2022-09-09T20:18:44.097Z,100912.22
2022-09-09T20:21:12.181Z,100952.09
2022-09-09T20:23:39.182Z,100942.63
2022-09-09T20:26:11.866Z,100894.91
2022-09-09T20:28:40.188Z,100958.56
2022-09-09T20:31:13.139Z,100936.34
2022-09-09T20:33:40.398Z,100961.38
2022-09-09T20:36:09.972Z,100964.06
2022-09-09T20:38:36.561Z,100966.81
2022-09-09T20:41:04.610Z,100973.84
2022-09-09T20:43:31.051Z,100975.69
2022-09-09T20:46:01.817Z,100948.44
2022-09-09T20:48:28.357Z,100977.78
2022-09-09T20:50:54.833Z,100982.91
2022-09-09T20:53:21.328Z,100965.81
2022-09-09T20:55:47.744Z,100989.13
2022-09-09T20:58:14.278Z,100989.25
2022-09-09T21:00:40.714Z,100990.16
2022-09-09T21:03:07.513Z,100981.56
2022-09-09T21:05:33.966Z,100983.38
2022-09-09T21:08:00.440Z,100973.06
2022-09-09T21:10:26.888Z,100985.28
2022-09-09T21:12:53.381Z,100980.13
2022-09-09T21:15:19.777Z,100993.22
2022-09-09T21:17:46.235Z,100996.00
2022-09-09T21:20:12.679Z,100992.66
2022-09-09T21:22:39.180Z,101008.28
2022-09-09T21:25:06.203Z,101010.09
2022-09-09T21:27:32.752Z,101002.31
2022-09-09T21:29:59.172Z,101009.28
2022-09-09T21:32:25.623Z,101005.88
2022-09-09T21:34:52.072Z,101008.47
2022-09-09T21:37:18.577Z,101009.38
2022-09-09T21:39:45.006Z,101011.16
2022-09-09T21:42:11.510Z,101014.72
2022-09-09T21:44:37.933Z,101012.16
2022-09-09T21:47:04.662Z,101023.59
2022-09-09T21:49:31.117Z,101024.47
2022-09-09T21:51:57.868Z,101012.47
2022-09-09T21:54:24.407Z,101019.47
2022-09-09T21:56:51.046Z,101016.16
2022-09-09T21:59:17.844Z,101023.06
2022-09-09T22:01:44.352Z,101030.13
2022-09-09T22:04:10.861Z,101031.91
2022-09-09T22:06:37.954Z,101030.34
2022-09-09T22:09:04.396Z,101027.00
2022-09-09T22:11:30.939Z,101033.97
2022-09-09T22:13:57.547Z,101027.97
2022-09-09T22:16:24.476Z,101034.03
2022-09-09T22:18:53.948Z,101036.75
2022-09-09T22:21:21.056Z,101030.63
2022-09-09T22:23:55.805Z,100995.47
2022-09-09T22:26:23.805Z,101032.50
2022-09-09T22:28:50.772Z,101029.03
2022-09-09T22:31:17.311Z,101036.03
2022-09-09T22:33:43.837Z,101037.81
2022-09-09T22:36:10.263Z,101038.81
2022-09-09T22:38:36.779Z,101037.94
2022-09-09T22:41:06.025Z,101041.47
2022-09-09T22:43:32.477Z,101048.50
2022-09-09T22:46:00.116Z,101044.13
2022-09-09T22:48:26.602Z,101043.28
2022-09-09T22:50:53.041Z,101045.06
2022-09-09T22:53:19.471Z,101033.88
2022-09-09T22:55:57.729Z,101009.88
2022-09-09T22:58:24.570Z,101052.19
2022-09-09T23:00:51.035Z,101056.56
2022-09-09T23:03:17.915Z,101053.09
2022-09-09T23:05:53.436Z,101059.28
2022-09-09T23:08:19.899Z,101051.50
2022-09-09T23:10:46.321Z,101048.00
2022-09-09T23:13:12.807Z,101045.44
2022-09-09T23:15:39.316Z,101054.34
2022-09-09T23:18:05.880Z,101063.03
2022-09-09T23:20:32.346Z,101063.03
2022-09-09T23:22:58.827Z,101063.09
2022-09-09T23:25:25.271Z,101062.31
2022-09-09T23:27:51.766Z,101066.69
2022-09-09T23:30:18.287Z,101066.75
2022-09-09T23:32:44.723Z,101065.06
2022-09-09T23:35:11.208Z,101062.44
2022-09-09T23:37:37.688Z,101049.59
2022-09-09T23:40:04.472Z,101062.53
2022-09-09T23:42:30.974Z,101061.63
2022-09-09T23:44:57.412Z,101062.53
2022-09-09T23:47:23.965Z,101065.16
2022-09-09T23:49:50.398Z,101068.66
2022-09-09T23:52:17.063Z,101063.50
2022-09-09T23:54:43.732Z,101077.41
2022-09-09T23:57:10.277Z,101081.81
2022-09-09T23:59:36.700Z,101082.69
